Time;durP1;ratioP1;P1;durP2;ratioP2;P2;SDS_P1;SDS_P2;PMS_P1;PMS_P2;Temp;Humidity;BMP_temperature;BMP_pressure;BME280_temperature;BME280_humidity;BME280_pressure;Samples;Min_cycle;Max_cycle;Signal;HPM_P1;HPM_P2
2022/03/08 00:02:19;;;;;;;12.70;7.53;;;0.60;99.90;;;;;;4998255;28;20042;-84
2022/03/08 00:04:45;;;;;;;12.18;7.32;;;0.60;99.90;;;;;;4979095;28;20045;-84
2022/03/08 00:07:12;;;;;;;12.20;7.53;;;0.60;99.90;;;;;;4977799;28;20046;-84
2022/03/08 00:09:37;;;;;;;12.73;6.90;;;0.60;99.90;;;;;;4995386;28;20133;-84
2022/03/08 00:12:04;;;;;;;12.73;7.75;;;0.50;99.90;;;;;;4962932;28;20120;-84
2022/03/08 00:14:30;;;;;;;14.43;7.65;;;0.50;99.90;;;;;;5011376;28;20038;-84
2022/03/08 00:16:56;;;;;;;14.65;8.13;;;0.50;99.90;;;;;;4995232;28;20046;-84
2022/03/08 00:19:22;;;;;;;11.60;7.43;;;0.60;99.90;;;;;;4994933;28;20042;-84
2022/03/08 00:21:47;;;;;;;12.65;7.40;;;0.60;99.90;;;;;;4961956;28;20097;-84
2022/03/08 00:24:14;;;;;;;13.18;7.38;;;1.20;99.90;;;;;;4995208;28;20081;-84
2022/03/08 00:26:40;;;;;;;14.20;7.90;;;0.40;99.90;;;;;;4978626;28;20046;-84
2022/03/08 00:29:06;;;;;;;15.00;8.18;;;0.40;99.90;;;;;;4994856;28;20403;-84
2022/03/08 00:31:32;;;;;;;13.52;8.00;;;0.40;99.90;;;;;;4962480;28;20137;-84
2022/03/08 00:33:58;;;;;;;14.02;8.38;;;0.50;99.90;;;;;;4994668;28;20034;-84
2022/03/08 00:36:23;;;;;;;13.13;7.45;;;0.50;99.90;;;;;;4977425;28;20105;-84
2022/03/08 00:38:49;;;;;;;12.85;7.90;;;0.60;99.90;;;;;;4978362;28;20046;-84
2022/03/08 00:41:16;;;;;;;13.50;8.05;;;1.00;99.90;;;;;;4978437;28;20088;-83
2022/03/08 00:43:41;;;;;;;13.00;8.05;;;0.60;99.90;;;;;;4994300;28;20046;-83
2022/03/08 00:46:07;;;;;;;14.27;8.35;;;0.60;99.90;;;;;;4978466;28;20034;-83
2022/03/08 00:48:33;;;;;;;13.93;8.23;;;0.70;99.90;;;;;;4978379;28;20046;-83
2022/03/08 00:50:59;;;;;;;13.82;8.43;;;0.90;99.90;;;;;;4994293;28;20125;-83
2022/03/08 00:53:25;;;;;;;14.65;8.60;;;0.80;99.90;;;;;;4977394;28;20042;-83
2022/03/08 00:55:50;;;;;;;13.02;8.35;;;1.30;99.90;;;;;;4977857;28;20061;-83
2022/03/08 00:58:16;;;;;;;15.55;8.98;;;0.40;99.90;;;;;;4977914;28;20504;-83
2022/03/08 01:00:42;;;;;;;12.88;7.93;;;0.90;99.90;;;;;;4994188;28;20481;-83
2022/03/08 01:03:08;;;;;;;12.45;7.38;;;0.80;99.90;;;;;;4978000;28;20074;-83
2022/03/08 01:05:34;;;;;;;14.68;8.25;;;0.20;99.90;;;;;;4977804;28;20186;-83
2022/03/08 01:08:01;;;;;;;14.98;8.65;;;0.10;99.90;;;;;;4977183;28;20485;-83
2022/03/08 01:10:28;;;;;;;14.13;8.52;;;0.10;99.90;;;;;;4977943;28;20513;-83
2022/03/08 01:12:55;;;;;;;14.15;8.25;;;0.10;99.90;;;;;;4993649;28;20378;-83
2022/03/08 01:15:24;;;;;;;13.32;7.90;;;0.60;99.90;;;;;;4977567;28;20070;-83
2022/03/08 01:17:50;;;;;;;13.10;7.72;;;0.40;99.90;;;;;;4977907;28;20045;-83
2022/03/08 01:20:16;;;;;;;14.52;8.93;;;0.00;99.90;;;;;;4977527;28;20042;-83
2022/03/08 01:22:42;;;;;;;15.30;9.20;;;0.30;99.90;;;;;;4976569;28;20130;-83
2022/03/08 01:25:10;;;;;;;16.80;9.02;;;0.00;99.90;;;;;;4977486;28;20038;-83
2022/03/08 01:27:36;;;;;;;14.85;9.35;;;0.00;99.90;;;;;;4977240;28;20468;-83
2022/03/08 01:30:09;;;;;;;13.95;8.73;;;-0.10;99.90;;;;;;4977755;28;20509;-83
2022/03/08 01:32:35;;;;;;;15.25;9.45;;;0.00;99.90;;;;;;4977227;28;20046;-83
2022/03/08 01:35:01;;;;;;;15.27;9.05;;;-0.10;99.90;;;;;;4977515;28;20122;-83
2022/03/08 01:37:27;;;;;;;15.93;9.75;;;0.00;99.90;;;;;;4976314;28;20038;-83
2022/03/08 01:39:53;;;;;;;14.70;8.95;;;0.00;99.90;;;;;;4993524;28;20036;-83
2022/03/08 01:42:22;;;;;;;16.08;9.23;;;0.70;99.90;;;;;;4993342;28;20042;-83
2022/03/08 01:44:48;;;;;;;15.93;9.07;;;0.20;99.90;;;;;;4977211;28;20046;-83
2022/03/08 01:47:20;;;;;;;14.88;9.00;;;-0.10;99.90;;;;;;4976898;28;20097;-83
2022/03/08 01:49:46;;;;;;;13.57;8.70;;;-0.10;99.90;;;;;;4993470;28;20508;-83
2022/03/08 01:52:12;;;;;;;14.35;8.80;;;-0.10;99.90;;;;;;4992504;28;20449;-83
2022/03/08 01:54:38;;;;;;;14.32;8.65;;;-0.20;99.90;;;;;;4992918;28;20038;-83
2022/03/08 01:57:05;;;;;;;13.88;8.13;;;-0.10;99.90;;;;;;4976808;28;20049;-83
2022/03/08 01:59:31;;;;;;;12.95;7.55;;;0.70;99.90;;;;;;4977041;28;20421;-84
2022/03/08 02:01:58;;;;;;;14.82;9.50;;;-0.20;99.90;;;;;;4976711;28;20046;-84
2022/03/08 02:04:24;;;;;;;14.18;8.93;;;-0.20;99.90;;;;;;4992925;28;20047;-84
2022/03/08 02:06:49;;;;;;;14.50;8.82;;;-0.10;99.90;;;;;;4975606;28;20038;-84
2022/03/08 02:09:15;;;;;;;15.00;9.10;;;-0.30;99.90;;;;;;4977009;28;20556;-84
2022/03/08 02:11:41;;;;;;;13.60;8.65;;;0.40;99.90;;;;;;4976460;28;20121;-84
2022/03/08 02:14:07;;;;;;;14.63;8.90;;;-0.40;99.90;;;;;;4976932;28;20090;-83
2022/03/08 02:16:33;;;;;;;15.02;9.27;;;-0.40;99.90;;;;;;4976660;28;20523;-83
2022/03/08 02:19:00;;;;;;;15.73;9.35;;;-0.40;99.90;;;;;;4976618;28;20129;-83
2022/03/08 02:21:25;;;;;;;15.60;9.68;;;-0.40;99.90;;;;;;4991642;28;20046;-83
2022/03/08 02:23:52;;;;;;;15.05;9.00;;;-0.50;99.90;;;;;;4976566;28;20097;-83
2022/03/08 02:26:21;;;;;;;16.73;10.27;;;-0.50;99.90;;;;;;4975378;28;20050;-84
2022/03/08 02:28:46;;;;;;;15.35;9.65;;;-0.50;99.90;;;;;;4976516;28;20121;-84
2022/03/08 02:31:12;;;;;;;14.80;9.00;;;-0.60;99.90;;;;;;4992488;28;20081;-84
2022/03/08 02:33:38;;;;;;;16.13;9.55;;;-0.50;99.90;;;;;;4976325;28;20069;-84
2022/03/08 02:36:07;;;;;;;14.98;9.50;;;-0.50;99.90;;;;;;4992787;28;20081;-84
2022/03/08 02:38:32;;;;;;;15.75;9.57;;;0.30;99.90;;;;;;4975718;28;20050;-84
2022/03/08 02:40:58;;;;;;;13.57;8.48;;;-0.50;99.90;;;;;;4992519;28;20409;-84
2022/03/08 02:43:24;;;;;;;14.43;8.70;;;-0.10;99.90;;;;;;4975975;28;20437;-84
2022/03/08 02:45:50;;;;;;;14.00;8.73;;;-0.60;99.90;;;;;;4976519;28;20510;-84
2022/03/08 02:48:15;;;;;;;16.35;9.48;;;-0.60;99.90;;;;;;4976178;28;20092;-84
2022/03/08 02:50:41;;;;;;;13.80;8.60;;;-0.60;99.90;;;;;;4992398;28;20092;-84
2022/03/08 02:53:07;;;;;;;17.23;9.43;;;-0.60;99.90;;;;;;4975457;28;20556;-84
2022/03/08 02:55:35;;;;;;;16.42;9.75;;;-0.60;99.90;;;;;;4976027;28;20142;-84
2022/03/08 02:58:01;;;;;;;18.63;11.23;;;-0.60;99.90;;;;;;4992592;28;20039;-84
2022/03/08 03:00:29;;;;;;;17.65;11.50;;;-0.70;99.90;;;;;;4959944;28;20038;-84
2022/03/08 03:02:55;;;;;;;20.00;11.75;;;-0.70;99.90;;;;;;4976016;28;20125;-84
2022/03/08 03:05:21;;;;;;;17.83;11.02;;;-0.70;99.90;;;;;;4992270;28;20073;-84
2022/03/08 03:07:47;;;;;;;17.00;10.35;;;-0.80;99.90;;;;;;4991236;28;20104;-84
2022/03/08 03:10:17;;;;;;;14.65;9.45;;;-0.70;99.90;;;;;;4992264;28;20035;-84
2022/03/08 03:12:43;;;;;;;17.25;10.20;;;-0.60;99.90;;;;;;4992178;28;20050;-84
2022/03/08 03:15:12;;;;;;;16.85;10.57;;;-0.70;99.90;;;;;;4992452;28;20469;-84
2022/03/08 03:17:38;;;;;;;16.80;10.88;;;-0.70;99.90;;;;;;4976014;28;20042;-84
2022/03/08 03:20:07;;;;;;;15.85;10.82;;;-0.70;99.90;;;;;;4976295;28;20405;-84
2022/03/08 03:22:33;;;;;;;16.45;10.25;;;-0.70;99.90;;;;;;4991470;28;20038;-84
2022/03/08 03:24:59;;;;;;;17.70;10.30;;;-0.80;99.90;;;;;;4959944;28;20038;-84
2022/03/08 03:27:24;;;;;;;15.75;9.80;;;-0.80;99.90;;;;;;4975696;28;20597;-84
2022/03/08 03:29:50;;;;;;;19.08;10.88;;;-0.80;99.90;;;;;;4992129;28;20093;-84
2022/03/08 03:32:16;;;;;;;16.77;10.43;;;0.20;99.90;;;;;;4975858;28;20113;-84
2022/03/08 03:34:41;;;;;;;18.13;11.40;;;-0.70;99.90;;;;;;4959817;28;20038;-84
2022/03/08 03:37:07;;;;;;;16.48;11.18;;;-0.60;99.90;;;;;;4976406;28;20042;-84
2022/03/08 03:39:33;;;;;;;17.38;11.07;;;-0.50;99.90;;;;;;4963234;28;20050;-84
2022/03/08 03:41:59;;;;;;;18.33;11.40;;;-0.40;99.90;;;;;;4979217;28;20042;-84
2022/03/08 03:44:25;;;;;;;18.58;11.63;;;-0.50;99.90;;;;;;4976481;28;20053;-84
2022/03/08 03:46:51;;;;;;;16.48;10.55;;;-0.50;99.90;;;;;;4995435;28;20034;-84
2022/03/08 03:49:16;;;;;;;16.55;10.07;;;-0.40;99.90;;;;;;4979453;28;20096;-84
2022/03/08 03:51:42;;;;;;;18.45;10.40;;;-0.60;99.90;;;;;;4962442;28;20042;-83
2022/03/08 03:54:08;;;;;;;18.17;11.70;;;-0.60;99.90;;;;;;4979575;28;20125;-83
2022/03/08 03:56:34;;;;;;;17.35;10.43;;;-0.60;99.90;;;;;;4978805;28;20093;-83
2022/03/08 03:59:00;;;;;;;18.45;11.55;;;-0.70;99.90;;;;;;4979140;28;20050;-83
2022/03/08 04:01:25;;;;;;;17.02;10.77;;;-0.40;99.90;;;;;;4963206;28;20501;-83
2022/03/08 04:03:51;;;;;;;18.20;11.00;;;-0.80;99.90;;;;;;4968580;28;20077;-83
2022/03/08 04:06:17;;;;;;;17.83;11.48;;;-0.80;99.90;;;;;;4962478;28;20508;-83
2022/03/08 04:08:43;;;;;;;19.00;12.05;;;-0.80;99.90;;;;;;4994704;28;20093;-83
2022/03/08 04:11:09;;;;;;;20.13;11.65;;;-0.90;99.90;;;;;;4978965;28;20078;-83
2022/03/08 04:13:35;;;;;;;20.15;12.80;;;-0.90;99.90;;;;;;4978793;28;20074;-83
2022/03/08 04:16:00;;;;;;;20.42;13.23;;;-0.90;99.90;;;;;;4963019;28;20101;-83
2022/03/08 04:18:26;;;;;;;22.00;12.55;;;-0.90;99.90;;;;;;4962433;28;20044;-83
2022/03/08 04:20:52;;;;;;;21.05;12.32;;;-0.90;99.90;;;;;;4994895;28;20042;-83
2022/03/08 04:23:18;;;;;;;20.27;12.10;;;0.30;99.90;;;;;;4977987;28;20490;-83
2022/03/08 04:25:44;;;;;;;21.45;13.18;;;-0.80;99.90;;;;;;4978547;28;20056;-83
2022/03/08 04:28:09;;;;;;;21.67;13.40;;;-0.80;99.90;;;;;;4978441;28;20038;-83
2022/03/08 04:30:35;;;;;;;20.42;12.88;;;-0.80;99.90;;;;;;4978543;28;20077;-83
2022/03/08 04:33:01;;;;;;;21.90;14.15;;;-0.80;99.90;;;;;;4978323;28;20493;-83
2022/03/08 04:35:27;;;;;;;19.08;12.45;;;-0.80;99.90;;;;;;4962200;28;20095;-83
2022/03/08 04:37:53;;;;;;;19.60;13.27;;;-0.80;99.90;;;;;;4977747;28;20050;-83
2022/03/08 04:40:19;;;;;;;22.10;12.73;;;-0.70;99.90;;;;;;4994551;28;20042;-83
2022/03/08 04:42:46;;;;;;;20.67;12.40;;;-0.70;99.90;;;;;;4981700;28;20521;-83
2022/03/08 04:45:13;;;;;;;22.25;13.68;;;-0.70;99.90;;;;;;4981954;28;20037;-84
2022/03/08 04:47:39;;;;;;;22.00;13.63;;;-0.70;99.90;;;;;;4997200;28;20050;-84
2022/03/08 04:50:07;;;;;;;21.45;14.00;;;-0.20;99.90;;;;;;4997033;28;20053;-84
2022/03/08 04:52:33;;;;;;;21.52;14.50;;;-0.70;99.90;;;;;;4996745;28;20508;-84
2022/03/08 04:54:59;;;;;;;21.70;13.50;;;-0.80;99.90;;;;;;4997577;28;20050;-84
2022/03/08 04:57:24;;;;;;;23.40;13.88;;;-0.80;99.90;;;;;;4981218;28;20046;-84
2022/03/08 04:59:50;;;;;;;24.23;14.65;;;0.30;99.90;;;;;;4997506;28;20049;-84
2022/03/08 05:02:16;;;;;;;23.83;14.57;;;-0.80;99.90;;;;;;4981160;28;20541;-84
2022/03/08 05:04:41;;;;;;;21.67;13.90;;;-0.80;99.90;;;;;;4981491;28;20057;-84
2022/03/08 05:07:07;;;;;;;22.17;14.15;;;-0.70;99.90;;;;;;4980167;28;20038;-84
2022/03/08 05:09:33;;;;;;;23.98;14.23;;;-0.70;99.90;;;;;;4981304;28;20388;-84
2022/03/08 05:11:59;;;;;;;23.08;14.50;;;-0.50;99.90;;;;;;4981198;28;20132;-84
2022/03/08 05:14:25;;;;;;;23.30;13.80;;;-0.60;99.90;;;;;;4997581;28;20049;-84
2022/03/08 05:16:52;;;;;;;23.50;15.02;;;-0.70;99.90;;;;;;4981343;28;20038;-84
2022/03/08 05:19:17;;;;;;;25.65;15.45;;;0.00;99.90;;;;;;4980863;28;20107;-84
2022/03/08 05:21:43;;;;;;;24.40;15.57;;;-0.80;99.90;;;;;;4980043;28;20400;-84
2022/03/08 05:24:10;;;;;;;22.25;15.18;;;-0.80;99.90;;;;;;4997030;28;20038;-84
2022/03/08 05:26:37;;;;;;;25.75;14.93;;;-0.80;99.90;;;;;;4980658;28;20049;-84
2022/03/08 05:29:04;;;;;;;23.83;15.02;;;-0.80;99.90;;;;;;4997164;28;20041;-84
2022/03/08 05:31:30;;;;;;;24.08;15.45;;;-0.80;99.90;;;;;;4995972;28;20396;-84
2022/03/08 05:33:56;;;;;;;23.92;14.98;;;-0.80;99.90;;;;;;4977681;28;20224;-84
2022/03/08 05:36:21;;;;;;;24.50;15.68;;;-0.70;99.90;;;;;;4960286;28;20038;-84
2022/03/08 05:38:47;;;;;;;24.98;15.50;;;-0.90;99.90;;;;;;4977537;28;20046;-84
2022/03/08 05:41:13;;;;;;;22.65;14.52;;;-1.00;99.90;;;;;;4993118;28;20045;-84
2022/03/08 05:43:39;;;;;;;23.52;14.75;;;-0.90;99.90;;;;;;4993210;28;20493;-84
2022/03/08 05:46:04;;;;;;;25.40;15.15;;;-0.90;99.90;;;;;;4977310;28;20070;-84
2022/03/08 05:48:30;;;;;;;24.00;15.13;;;-0.90;99.90;;;;;;4993043;28;20034;-84
2022/03/08 05:50:56;;;;;;;23.65;15.32;;;-0.80;99.90;;;;;;4960793;28;20038;-84
2022/03/08 05:53:21;;;;;;;24.75;15.80;;;0.00;99.90;;;;;;4976113;28;20049;-84
2022/03/08 05:55:47;;;;;;;25.42;15.57;;;-0.90;99.90;;;;;;4960649;28;20489;-84
2022/03/08 05:58:13;;;;;;;26.55;16.25;;;-0.80;99.90;;;;;;4976903;28;20038;-84
2022/03/08 06:00:39;;;;;;;26.65;16.00;;;-0.50;99.90;;;;;;4976743;28;20045;-84
2022/03/08 06:03:04;;;;;;;25.05;16.20;;;-0.80;99.90;;;;;;4976890;28;20129;-84
2022/03/08 06:05:30;;;;;;;24.38;15.93;;;-0.80;99.90;;;;;;4993017;28;20097;-84
2022/03/08 06:07:56;;;;;;;24.95;16.10;;;-0.90;99.90;;;;;;4975835;28;20038;-84
2022/03/08 06:10:22;;;;;;;28.30;16.15;;;-0.50;99.90;;;;;;4960584;28;20034;-84
2022/03/08 06:12:47;;;;;;;28.02;16.17;;;-0.90;99.90;;;;;;4976607;28;20178;-84
2022/03/08 06:15:13;;;;;;;29.90;16.92;;;-0.90;99.90;;;;;;4960688;28;20038;-84
2022/03/08 06:17:39;;;;;;;27.65;17.48;;;-0.80;99.90;;;;;;4992817;28;20101;-84
2022/03/08 06:20:05;;;;;;;26.13;16.25;;;-0.80;99.90;;;;;;4960515;28;20047;-84
2022/03/08 06:22:31;;;;;;;27.05;17.25;;;-0.90;99.90;;;;;;4975737;28;20034;-84
2022/03/08 06:24:56;;;;;;;27.33;17.30;;;-0.80;99.90;;;;;;4976616;28;20104;-84
2022/03/08 06:27:23;;;;;;;25.70;16.83;;;-0.90;99.90;;;;;;4960266;28;20070;-84
2022/03/08 06:29:51;;;;;;;28.13;17.35;;;0.00;99.90;;;;;;4992940;28;20114;-84
2022/03/08 06:32:19;;;;;;;28.02;17.73;;;-0.90;99.90;;;;;;4976365;28;20042;-84
2022/03/08 06:34:45;;;;;;;26.73;17.27;;;-0.80;99.90;;;;;;4976606;28;20042;-84
2022/03/08 06:37:12;;;;;;;28.58;18.25;;;-0.80;99.90;;;;;;4991599;28;20038;-84
2022/03/08 06:39:37;;;;;;;28.02;18.10;;;-0.90;99.90;;;;;;4976314;28;20046;-84
2022/03/08 06:42:04;;;;;;;28.75;17.48;;;-0.90;99.90;;;;;;4976527;28;20054;-84
2022/03/08 06:44:31;;;;;;;28.52;18.10;;;-0.90;99.90;;;;;;4976273;28;20050;-84
2022/03/08 06:46:57;;;;;;;29.88;19.58;;;-0.80;99.90;;;;;;4976022;28;20046;-84
2022/03/08 06:49:23;;;;;;;29.02;18.15;;;0.60;99.90;;;;;;4992699;28;20560;-84
2022/03/08 06:51:49;;;;;;;25.38;17.23;;;0.00;99.90;;;;;;4975206;28;20034;-84
2022/03/08 06:54:15;;;;;;;26.58;17.60;;;0.40;99.90;;;;;;4995855;28;20392;-84
2022/03/08 06:56:40;;;;;;;24.13;16.65;;;0.80;99.90;;;;;;5011647;28;20066;-84
2022/03/08 06:59:06;;;;;;;26.33;16.65;;;1.20;99.90;;;;;;4979532;28;20570;-84
2022/03/08 07:01:32;;;;;;;25.52;16.45;;;1.30;99.90;;;;;;4995460;28;20081;-84
2022/03/08 07:03:58;;;;;;;22.80;15.52;;;1.60;99.90;;;;;;4979434;28;20073;-84
2022/03/08 07:06:24;;;;;;;24.40;15.30;;;1.30;99.90;;;;;;4994657;28;20129;-84
2022/03/08 07:08:50;;;;;;;23.65;15.50;;;2.20;99.90;;;;;;4979654;28;20030;-84
2022/03/08 07:11:16;;;;;;;24.58;14.93;;;1.50;99.90;;;;;;4995825;28;20033;-84
2022/03/08 07:13:42;;;;;;;25.35;15.75;;;1.40;99.90;;;;;;5015788;28;20049;-84
2022/03/08 07:16:08;;;;;;;23.25;14.57;;;1.50;99.90;;;;;;4999467;28;20034;-84
2022/03/08 07:18:34;;;;;;;22.10;14.80;;;1.70;99.90;;;;;;4966860;28;20563;-84
2022/03/08 07:21:02;;;;;;;21.70;14.40;;;1.50;99.90;;;;;;4983445;28;20045;-84
2022/03/08 07:23:28;;;;;;;22.85;15.25;;;1.50;99.90;;;;;;4982857;28;20073;-84
2022/03/08 07:25:53;;;;;;;22.83;14.73;;;1.50;99.90;;;;;;4999147;28;20049;-84
2022/03/08 07:28:19;;;;;;;22.83;14.57;;;1.60;99.90;;;;;;4966741;28;20413;-84
2022/03/08 07:30:45;;;;;;;20.60;14.00;;;1.70;99.90;;;;;;4966693;28;20129;-84
2022/03/08 07:33:10;;;;;;;21.42;13.98;;;1.70;99.90;;;;;;4982599;28;20085;-84
2022/03/08 07:35:36;;;;;;;20.80;14.55;;;2.10;99.90;;;;;;4983083;28;20452;-84
2022/03/08 07:38:02;;;;;;;21.25;12.38;;;2.30;99.90;;;;;;4998078;28;20042;-83
2022/03/08 07:40:28;;;;;;;21.27;13.82;;;2.10;99.90;;;;;;4998833;28;20133;-83
2022/03/08 07:42:54;;;;;;;20.00;13.00;;;2.20;99.90;;;;;;5015091;28;20081;-83
2022/03/08 07:45:20;;;;;;;21.17;13.20;;;2.30;99.90;;;;;;4982733;28;20041;-83
2022/03/08 07:47:45;;;;;;;19.48;12.82;;;2.40;99.90;;;;;;4998575;28;20038;-83
2022/03/08 07:50:11;;;;;;;19.52;13.65;;;2.50;99.90;;;;;;4998687;28;20196;-83
2022/03/08 07:52:38;;;;;;;21.63;14.15;;;2.60;99.90;;;;;;4997827;28;20030;-83
2022/03/08 07:55:05;;;;;;;20.40;13.52;;;2.70;99.90;;;;;;4982378;28;20054;-83
2022/03/08 07:57:31;;;;;;;19.30;13.23;;;2.80;99.90;;;;;;4966357;28;20120;-83
2022/03/08 07:59:57;;;;;;;16.88;11.27;;;2.90;99.90;;;;;;4998573;28;20187;-83
2022/03/08 08:02:22;;;;;;;19.17;12.68;;;2.90;99.90;;;;;;4998251;28;20114;-83
2022/03/08 08:04:48;;;;;;;19.02;13.25;;;3.00;99.90;;;;;;4965935;28;20132;-83
2022/03/08 08:07:14;;;;;;;19.15;13.55;;;3.10;99.90;;;;;;4981358;28;20085;-83
2022/03/08 08:09:40;;;;;;;19.10;12.25;;;3.20;99.90;;;;;;4982092;28;20062;-83
2022/03/08 08:12:07;;;;;;;19.75;13.05;;;3.20;99.90;;;;;;4966099;28;20049;-83
2022/03/08 08:14:33;;;;;;;17.23;12.55;;;3.30;99.90;;;;;;4998201;28;20034;-83
2022/03/08 08:16:59;;;;;;;18.08;13.50;;;3.40;99.90;;;;;;5014346;28;20056;-83
2022/03/08 08:19:25;;;;;;;17.70;11.85;;;3.50;99.90;;;;;;4981976;28;20053;-83
2022/03/08 08:21:51;;;;;;;19.05;12.98;;;3.60;99.90;;;;;;4981244;28;20050;-83
2022/03/08 08:24:17;;;;;;;18.77;11.02;;;3.90;99.90;;;;;;4966055;28;20449;-83
2022/03/08 08:26:43;;;;;;;16.70;12.15;;;3.80;99.90;;;;;;4997966;28;20133;-83
2022/03/08 08:29:09;;;;;;;17.17;10.55;;;4.00;99.90;;;;;;4965770;28;20080;-83
2022/03/08 08:31:34;;;;;;;18.20;10.32;;;4.10;99.90;;;;;;5014002;28;20420;-83
2022/03/08 08:34:00;;;;;;;16.55;11.00;;;4.20;99.90;;;;;;4981777;28;20038;-83
2022/03/08 08:36:26;;;;;;;17.77;12.35;;;4.30;99.90;;;;;;4964740;28;20049;-83
2022/03/08 08:38:52;;;;;;;15.82;11.48;;;4.40;99.90;;;;;;4965615;28;20125;-83
2022/03/08 08:41:18;;;;;;;16.58;11.63;;;4.50;99.90;;;;;;4997489;28;20096;-83
2022/03/08 08:43:44;;;;;;;15.20;9.95;;;4.80;99.90;;;;;;5013911;28;20460;-83
2022/03/08 08:46:09;;;;;;;15.27;9.57;;;4.80;99.70;;;;;;4981463;28;20042;-83
2022/03/08 08:48:35;;;;;;;13.15;8.18;;;5.00;98.40;;;;;;4981479;28;20073;-83
2022/03/08 08:51:01;;;;;;;15.05;10.88;;;5.10;96.70;;;;;;4981419;28;20485;-84
2022/03/08 08:53:27;;;;;;;14.27;9.23;;;5.20;97.60;;;;;;4970274;28;20070;-84
2022/03/08 08:55:53;;;;;;;15.88;10.40;;;5.30;96.30;;;;;;4961890;28;20093;-84
2022/03/08 08:58:18;;;;;;;10.63;6.15;;;5.40;97.60;;;;;;4994530;28;20053;-84
2022/03/08 09:00:44;;;;;;;14.93;9.18;;;5.60;93.60;;;;;;4978341;28;20085;-84
2022/03/08 09:03:14;;;;;;;14.45;9.60;;;5.70;94.20;;;;;;4977882;28;20049;-84
2022/03/08 09:05:43;;;;;;;15.48;8.43;;;5.80;92.20;;;;;;4978897;28;20038;-83
2022/03/08 09:08:10;;;;;;;12.00;7.63;;;5.90;93.40;;;;;;5009342;28;20053;-83
2022/03/08 09:10:36;;;;;;;13.57;9.13;;;6.00;92.00;;;;;;5010352;28;20046;-83
2022/03/08 09:13:02;;;;;;;14.70;9.32;;;6.10;89.90;;;;;;4993933;28;20042;-83
2022/03/08 09:15:28;;;;;;;13.10;8.40;;;6.20;93.00;;;;;;5010217;28;20073;-83
2022/03/08 09:17:54;;;;;;;12.93;9.13;;;6.40;90.10;;;;;;5010063;28;20054;-83
2022/03/08 09:20:22;;;;;;;10.45;5.88;;;6.50;89.30;;;;;;4993630;28;20055;-83
2022/03/08 09:22:49;;;;;;;11.57;7.70;;;6.70;82.70;;;;;;4977110;28;20120;-83
2022/03/08 09:25:14;;;;;;;12.55;8.40;;;6.70;85.90;;;;;;4961514;28;20049;-83
2022/03/08 09:27:40;;;;;;;13.13;8.50;;;6.90;80.50;;;;;;4977327;28;20046;-83
2022/03/08 09:30:07;;;;;;;12.68;8.60;;;7.00;83.40;;;;;;5010281;28;20069;-83
2022/03/08 09:32:33;;;;;;;11.27;7.32;;;7.10;79.80;;;;;;4961086;28;20042;-83
2022/03/08 09:34:59;;;;;;;13.13;8.48;;;7.20;79.20;;;;;;4960833;28;20073;-83
2022/03/08 09:37:25;;;;;;;12.27;8.15;;;7.30;77.70;;;;;;4960318;28;20046;-83
2022/03/08 09:39:50;;;;;;;12.48;8.20;;;7.50;78.00;;;;;;4961330;28;20493;-83
2022/03/08 09:42:17;;;;;;;11.40;7.97;;;7.60;80.30;;;;;;4961339;28;20117;-83
2022/03/08 09:44:43;;;;;;;9.35;6.47;;;7.80;77.80;;;;;;4993296;28;20046;-83
2022/03/08 09:47:09;;;;;;;10.63;7.85;;;7.80;70.00;;;;;;4976892;28;20042;-83
2022/03/08 09:49:35;;;;;;;10.18;6.97;;;7.90;74.00;;;;;;4977066;28;20547;-83
2022/03/08 09:52:01;;;;;;;12.32;7.60;;;8.00;72.80;;;;;;4992544;28;20482;-83
2022/03/08 09:54:27;;;;;;;10.52;6.68;;;8.20;73.50;;;;;;4945067;28;20039;-83
2022/03/08 09:56:52;;;;;;;8.35;4.20;;;8.20;69.00;;;;;;4976668;28;20696;-83
2022/03/08 09:59:19;;;;;;;11.98;5.38;;;8.40;67.20;;;;;;4977016;28;20100;-83
2022/03/08 10:01:46;;;;;;;6.75;3.35;;;8.40;67.20;;;;;;4976615;28;20046;-83
2022/03/08 10:04:17;;;;;;;8.10;4.05;;;8.40;64.80;;;;;;4988531;28;20136;-83
2022/03/08 10:06:44;;;;;;;10.30;3.40;;;8.30;64.20;;;;;;5027895;28;20177;-83
2022/03/08 10:09:15;;;;;;;5.75;3.10;;;8.20;61.60;;;;;;4996449;28;20038;-83
2022/03/08 10:11:41;;;;;;;11.68;7.13;;;8.30;62.80;;;;;;5012482;28;20046;-83
2022/03/08 10:14:11;;;;;;;8.38;5.47;;;8.40;66.90;;;;;;4980358;28;20040;-83
2022/03/08 10:16:43;;;;;;;10.85;7.13;;;8.60;61.90;;;;;;4980568;28;20038;-84
2022/03/08 10:19:12;;;;;;;12.10;4.32;;;8.70;64.40;;;;;;4997765;28;20440;-84
2022/03/08 10:21:43;;;;;;;8.77;5.55;;;8.90;64.20;;;;;;4995535;28;20042;-84
2022/03/08 10:24:13;;;;;;;7.45;3.75;;;8.90;62.30;;;;;;4996508;28;20081;-84
2022/03/08 10:26:44;;;;;;;11.02;7.13;;;8.90;60.30;;;;;;5029050;28;20507;-84
2022/03/08 10:29:09;;;;;;;8.27;5.43;;;8.90;63.90;;;;;;4996412;28;20124;-84
2022/03/08 10:31:35;;;;;;;9.32;5.68;;;9.00;60.50;;;;;;5028705;28;20081;-84
2022/03/08 10:34:07;;;;;;;7.88;4.55;;;9.10;61.60;;;;;;4996067;28;20038;-84
2022/03/08 10:36:35;;;;;;;6.15;2.88;;;9.10;60.70;;;;;;5011526;28;20056;-84
2022/03/08 10:39:11;;;;;;;4.80;2.22;;;9.20;58.90;;;;;;5029034;28;20512;-84
2022/03/08 10:41:47;;;;;;;5.47;2.65;;;9.10;56.60;;;;;;5028855;28;20049;-84
2022/03/08 10:44:12;;;;;;;7.75;3.20;;;9.00;56.40;;;;;;5029356;28;20084;-84
2022/03/08 10:46:38;;;;;;;5.95;2.30;;;9.00;57.50;;;;;;4978818;28;20077;-84
2022/03/08 10:49:13;;;;;;;8.85;5.47;;;9.00;56.00;;;;;;4979912;28;20467;-84
2022/03/08 10:51:39;;;;;;;9.43;5.60;;;9.10;57.30;;;;;;4994849;28;20052;-84
2022/03/08 10:54:15;;;;;;;6.93;2.58;;;9.20;56.60;;;;;;5012057;28;20374;-84
2022/03/08 10:56:44;;;;;;;7.63;3.42;;;9.40;55.50;;;;;;4976119;28;20522;-84
2022/03/08 10:59:11;;;;;;;5.05;2.08;;;9.40;54.70;;;;;;4992660;28;20055;-84
2022/03/08 11:01:40;;;;;;;8.15;5.60;;;9.40;53.90;;;;;;4992332;28;20387;-84
2022/03/08 11:04:20;;;;;;;6.63;3.47;;;9.50;56.00;;;;;;4992399;28;20050;-84
2022/03/08 11:06:50;;;;;;;5.68;2.55;;;9.60;54.20;;;;;;4975479;28;20042;-84
2022/03/08 11:09:16;;;;;;;5.60;2.75;;;9.50;53.30;;;;;;4976698;28;20039;-84
2022/03/08 11:11:43;;;;;;;8.55;4.80;;;9.50;55.80;;;;;;4992281;28;20038;-84
2022/03/08 11:14:09;;;;;;;7.25;5.07;;;9.60;53.20;;;;;;4976174;28;20129;-84
2022/03/08 11:16:36;;;;;;;6.07;2.72;;;9.60;57.00;;;;;;4975964;28;20042;-84
2022/03/08 11:19:02;;;;;;;6.72;4.15;;;9.70;54.60;;;;;;4976364;28;20038;-84
2022/03/08 11:21:31;;;;;;;5.00;2.40;;;9.90;54.90;;;;;;4991449;28;20054;-84
2022/03/08 11:23:58;;;;;;;5.85;2.42;;;9.90;52.50;;;;;;4976453;28;20046;-84
2022/03/08 11:26:25;;;;;;;8.65;4.93;;;9.80;53.80;;;;;;4975970;28;20046;-84
2022/03/08 11:28:52;;;;;;;6.47;3.35;;;9.80;56.20;;;;;;4976487;28;20477;-84
2022/03/08 11:31:22;;;;;;;6.32;2.67;;;9.90;54.40;;;;;;4976433;28;20034;-84
2022/03/08 11:34:39;;;;;;;5.68;2.28;;;9.80;52.90;;;;;;4992211;28;20464;-84
2022/03/08 11:37:23;;;;;;;7.97;4.60;;;9.80;53.20;;;;;;4982792;28;20055;-84
2022/03/08 11:40:07;;;;;;;8.73;4.60;;;9.90;55.00;;;;;;4976014;28;20125;-84
2022/03/08 11:42:34;;;;;;;8.35;4.35;;;9.60;53.80;;;;;;4976038;28;20121;-84
2022/03/08 11:45:06;;;;;;;7.47;3.78;;;10.10;54.60;;;;;;4976680;28;20038;-84
2022/03/08 11:47:51;;;;;;;7.72;3.67;;;10.20;54.10;;;;;;4976065;28;20043;-84
2022/03/08 11:50:36;;;;;;;7.97;4.88;;;10.20;54.80;;;;;;4992530;28;20038;-84
2022/03/08 11:53:07;;;;;;;5.63;2.72;;;10.30;54.90;;;;;;4991236;28;20043;-84
2022/03/08 11:55:56;;;;;;;6.67;3.53;;;10.20;53.70;;;;;;4992093;28;20050;-84
2022/03/08 11:58:45;;;;;;;7.05;3.05;;;10.20;55.10;;;;;;4978001;28;20176;-84
2022/03/08 12:01:32;;;;;;;8.10;4.40;;;10.30;54.50;;;;;;4995720;28;20085;-84
2022/03/08 12:04:07;;;;;;;5.18;2.42;;;10.20;52.60;;;;;;4979385;28;20073;-84
2022/03/08 12:06:35;;;;;;;5.00;1.73;;;10.20;53.50;;;;;;4994936;28;20137;-84
2022/03/08 12:09:18;;;;;;;6.13;2.67;;;10.10;52.00;;;;;;4963674;28;20497;-84
2022/03/08 12:12:09;;;;;;;7.30;4.38;;;10.10;54.00;;;;;;4979339;28;20047;-84
2022/03/08 12:14:40;;;;;;;4.75;2.00;;;10.10;54.40;;;;;;4963488;28;20125;-84
2022/03/08 12:17:12;;;;;;;6.28;3.58;;;10.20;53.30;;;;;;4979179;28;20558;-84
2022/03/08 12:19:42;;;;;;;6.43;4.05;;;10.40;55.00;;;;;;4995645;28;20050;-84
2022/03/08 12:22:14;;;;;;;7.38;4.47;;;10.50;54.00;;;;;;4989857;28;20121;-84
2022/03/08 12:24:55;;;;;;;8.02;5.00;;;10.40;53.50;;;;;;5031716;28;20042;-84
2022/03/08 12:27:23;;;;;;;8.35;5.10;;;10.40;55.20;;;;;;5030920;28;20078;-84
2022/03/08 12:29:51;;;;;;;6.75;3.63;;;10.40;54.60;;;;;;5031571;28;20092;-84
2022/03/08 12:32:25;;;;;;;5.45;2.10;;;10.40;52.70;;;;;;5031398;28;20504;-84
2022/03/08 12:34:57;;;;;;;5.78;2.53;;;10.40;51.60;;;;;;5031029;28;20125;-84
2022/03/08 12:37:31;;;;;;;8.30;3.30;;;10.30;53.20;;;;;;5030375;28;20096;-84
2022/03/08 12:40:00;;;;;;;7.47;4.10;;;10.30;51.00;;;;;;5014609;28;20126;-84
2022/03/08 12:42:29;;;;;;;8.23;4.70;;;10.20;54.60;;;;;;5030808;28;20052;-84